createdAt,value
2023-02-22T00:01:19.242Z,2.20
2023-02-22T00:03:52.207Z,2.15
2023-02-22T00:06:21.404Z,1.73
2023-02-22T00:08:49.816Z,2.08
2023-02-22T00:11:21.022Z,1.83
2023-02-22T00:13:50.470Z,2.35
2023-02-22T00:16:24.100Z,2.40
2023-02-22T00:18:53.758Z,1.67
2023-02-22T00:21:23.963Z,1.92
2023-02-22T00:23:50.915Z,2.08
2023-02-22T00:26:20.740Z,2.42
2023-02-22T00:28:53.369Z,2.00
2023-02-22T00:31:21.001Z,2.17
2023-02-22T00:33:51.573Z,2.10
2023-02-22T00:36:20.656Z,2.17
2023-02-22T00:38:52.979Z,2.20
2023-02-22T00:41:22.530Z,1.85
2023-02-22T00:43:50.238Z,2.20
2023-02-22T00:46:19.450Z,2.08
2023-02-22T00:48:46.197Z,2.15
2023-02-22T00:51:15.679Z,2.42
2023-02-22T00:53:42.964Z,2.38
2023-02-22T00:56:09.798Z,1.92
2023-02-22T00:58:47.533Z,2.13
2023-02-22T01:01:17.631Z,2.38
2023-02-22T01:03:47.652Z,2.50
2023-02-22T01:06:19.817Z,2.42
2023-02-22T01:08:49.134Z,2.22
2023-02-22T01:11:17.560Z,2.42
2023-02-22T01:13:54.196Z,2.58
2023-02-22T01:16:23.139Z,2.67
2023-02-22T01:18:49.975Z,2.10
2023-02-22T01:21:21.185Z,2.10
2023-02-22T01:23:50.034Z,2.30
2023-02-22T01:26:19.137Z,3.15
2023-02-22T01:28:46.632Z,1.95
2023-02-22T01:31:17.198Z,2.55
2023-02-22T01:33:46.381Z,2.10
2023-02-22T01:36:16.985Z,2.55
2023-02-22T01:38:51.552Z,2.42
2023-02-22T01:41:23.101Z,2.13
2023-02-22T01:43:50.016Z,2.50
2023-02-22T01:46:31.628Z,2.53
2023-02-22T01:49:11.131Z,2.90
2023-02-22T01:51:40.826Z,2.22
2023-02-22T01:54:30.414Z,2.40
2023-02-22T01:57:10.051Z,2.10
2023-02-22T01:59:49.001Z,2.17
2023-02-22T02:02:19.052Z,2.60
2023-02-22T02:04:49.187Z,2.45
2023-02-22T02:07:18.650Z,2.05
2023-02-22T02:12:16.640Z,2.60
2023-02-22T02:14:45.844Z,2.03
2023-02-22T02:17:18.632Z,2.33
2023-02-22T02:20:01.218Z,2.70
2023-02-22T02:22:42.853Z,2.70
2023-02-22T02:25:26.669Z,2.33
2023-02-22T02:28:10.995Z,2.75
2023-02-22T02:31:25.867Z,2.60
2023-02-22T02:34:24.336Z,2.38
2023-02-22T02:37:00.238Z,2.88
2023-02-22T02:39:39.745Z,2.72
2023-02-22T02:42:08.718Z,2.35
2023-02-22T02:44:48.004Z,2.70
2023-02-22T02:47:22.529Z,2.42
2023-02-22T02:50:00.630Z,2.80
2023-02-22T02:52:29.465Z,2.63
2023-02-22T02:54:57.078Z,2.47
2023-02-22T02:57:24.760Z,2.28
2023-02-22T02:59:51.673Z,2.42
2023-02-22T03:02:45.039Z,2.80
2023-02-22T03:05:17.090Z,2.55
2023-02-22T03:07:52.739Z,2.75
2023-02-22T03:10:39.122Z,2.10
2023-02-22T03:13:17.718Z,2.38
2023-02-22T03:16:12.800Z,2.67
2023-02-22T03:19:08.087Z,2.45
2023-02-22T03:21:55.547Z,2.45
2023-02-22T03:24:27.863Z,2.72
2023-02-22T03:27:02.982Z,2.33
2023-02-22T03:29:35.661Z,3.00
2023-02-22T03:32:06.035Z,2.65
2023-02-22T03:34:40.958Z,2.28
2023-02-22T03:37:17.694Z,2.83
2023-02-22T03:39:49.916Z,2.72
2023-02-22T03:42:25.296Z,3.00
2023-02-22T03:44:53.727Z,2.45
2023-02-22T03:47:30.051Z,2.17
2023-02-22T03:50:07.147Z,2.45
2023-02-22T03:52:35.746Z,2.42
2023-02-22T03:55:04.248Z,2.80
2023-02-22T03:57:34.814Z,2.53
2023-02-22T04:00:09.061Z,3.25
2023-02-22T04:02:42.753Z,2.80
2023-02-22T04:05:14.907Z,3.05
2023-02-22T04:07:44.062Z,2.80
2023-02-22T04:10:13.183Z,2.80
2023-02-22T04:12:42.726Z,2.70
2023-02-22T04:15:18.174Z,3.08
2023-02-22T04:17:48.001Z,2.58
2023-02-22T04:20:20.055Z,2.88
2023-02-22T04:23:01.258Z,2.65
2023-02-22T04:25:29.332Z,3.83
2023-02-22T04:27:57.111Z,3.10
2023-02-22T04:30:35.251Z,3.17
2023-02-22T04:33:03.800Z,2.97
2023-02-22T04:35:31.429Z,2.30
2023-02-22T04:37:59.591Z,3.22
2023-02-22T04:40:27.220Z,2.80
2023-02-22T04:42:56.673Z,3.58
2023-02-22T04:45:24.100Z,2.47
2023-02-22T04:47:51.017Z,3.00
2023-02-22T04:50:22.850Z,3.10
2023-02-22T04:52:51.967Z,3.10
2023-02-22T04:55:18.969Z,2.90
2023-02-22T04:57:48.493Z,3.35
2023-02-22T05:00:21.801Z,3.05
2023-02-22T05:02:54.461Z,3.83
2023-02-22T05:05:23.292Z,3.35
2023-02-22T05:07:50.772Z,3.50
2023-02-22T05:10:17.606Z,3.28
2023-02-22T05:12:44.422Z,3.63
2023-02-22T05:15:15.789Z,3.53
2023-02-22T05:17:42.688Z,4.18
2023-02-22T05:20:19.690Z,4.95
2023-02-22T05:22:49.293Z,3.13
2023-02-22T05:25:16.223Z,3.03
2023-02-22T05:27:43.006Z,3.90
2023-02-22T05:30:12.654Z,3.55
2023-02-22T05:32:42.008Z,3.75
2023-02-22T05:35:14.060Z,3.53
2023-02-22T05:37:43.560Z,3.47
2023-02-22T05:42:42.251Z,3.95
2023-02-22T05:45:18.263Z,3.80
2023-02-22T05:47:45.928Z,3.58
2023-02-22T05:50:13.807Z,4.30
2023-02-22T05:52:43.346Z,3.97
2023-02-22T05:55:14.994Z,4.68
2023-02-22T05:57:42.037Z,4.38
2023-02-22T06:00:15.242Z,4.70
2023-02-22T06:02:44.930Z,4.55
2023-02-22T06:05:14.085Z,4.40
2023-02-22T06:07:43.033Z,4.85
2023-02-22T06:10:10.286Z,4.28
2023-02-22T06:12:45.723Z,4.30
2023-02-22T06:15:15.188Z,5.25
2023-02-22T06:17:47.712Z,4.63
2023-02-22T06:20:16.597Z,5.25
2023-02-22T06:22:54.060Z,4.72
2023-02-22T06:25:30.947Z,5.30
2023-02-22T06:27:59.530Z,4.78
2023-02-22T06:30:27.997Z,4.68
2023-02-22T06:32:55.249Z,5.10
2023-02-22T06:35:22.960Z,5.32
2023-02-22T06:38:24.731Z,5.25
2023-02-22T06:40:58.375Z,5.18
2023-02-22T06:43:26.235Z,5.13
2023-02-22T06:45:53.572Z,5.10
2023-02-22T06:48:20.802Z,5.13
2023-02-22T06:50:52.349Z,4.78
2023-02-22T06:53:19.184Z,5.20
2023-02-22T06:55:48.286Z,4.72
2023-02-22T06:58:17.141Z,5.47
2023-02-22T07:00:46.192Z,5.35
2023-02-22T07:03:16.531Z,5.30
2023-02-22T07:05:48.461Z,5.72
2023-02-22T07:08:20.540Z,5.10
2023-02-22T07:10:50.465Z,5.22
2023-02-22T07:13:17.192Z,4.90
2023-02-22T07:15:46.754Z,5.13
2023-02-22T07:18:16.220Z,5.50
2023-02-22T07:20:46.335Z,5.63
2023-02-22T07:23:17.191Z,4.95
2023-02-22T07:25:44.017Z,5.32
2023-02-22T07:28:11.674Z,4.97
2023-02-22T07:30:38.531Z,4.95
2023-02-22T07:35:43.799Z,4.97
2023-02-22T07:38:10.530Z,4.55
2023-02-22T07:40:40.103Z,4.65
2023-02-22T07:43:16.725Z,3.90
2023-02-22T07:45:44.188Z,4.55
2023-02-22T07:48:15.093Z,4.70
2023-02-22T07:50:43.636Z,4.63
2023-02-22T07:53:15.981Z,4.85
2023-02-22T07:55:43.655Z,4.30
2023-02-22T07:58:17.892Z,4.68
2023-02-22T08:00:52.576Z,4.65
2023-02-22T08:03:24.751Z,4.68
2023-02-22T08:05:56.638Z,4.32
2023-02-22T08:08:26.302Z,3.60
2023-02-22T08:10:55.352Z,4.75
2023-02-22T08:13:27.028Z,4.72
2023-02-22T08:15:54.320Z,4.30
2023-02-22T08:18:21.954Z,4.50
2023-02-22T08:20:52.298Z,4.68
2023-02-22T08:23:21.149Z,4.57
2023-02-22T08:25:52.812Z,4.32
2023-02-22T08:28:23.280Z,4.93
2023-02-22T08:30:50.874Z,5.25
2023-02-22T08:33:21.599Z,4.63
2023-02-22T08:35:49.744Z,4.65
2023-02-22T08:38:23.113Z,4.28
2023-02-22T08:40:52.516Z,4.28
2023-02-22T08:43:26.736Z,4.35
2023-02-22T08:45:57.781Z,4.60
2023-02-22T08:48:27.047Z,3.92
2023-02-22T08:50:53.964Z,4.45
2023-02-22T08:53:20.718Z,4.57
2023-02-22T08:55:49.886Z,4.38
2023-02-22T08:58:16.915Z,4.90
2023-02-22T09:00:46.352Z,4.68
2023-02-22T09:03:14.871Z,4.35
2023-02-22T09:05:43.058Z,4.75
2023-02-22T09:08:13.065Z,4.45
2023-02-22T09:10:40.718Z,3.67
2023-02-22T09:13:07.572Z,4.35
2023-02-22T09:15:41.006Z,3.92
2023-02-22T09:18:10.560Z,4.22
2023-02-22T09:20:37.661Z,3.50
2023-02-22T09:23:05.808Z,4.43
2023-02-22T09:25:35.810Z,4.40
2023-02-22T09:28:05.343Z,4.68
2023-02-22T09:30:34.316Z,4.13
2023-02-22T09:33:07.088Z,4.50
2023-02-22T09:35:37.508Z,4.35
2023-02-22T09:38:06.495Z,4.57
2023-02-22T09:40:44.786Z,4.35
2023-02-22T09:43:35.792Z,3.92
2023-02-22T09:46:35.449Z,4.18
2023-02-22T09:49:16.487Z,4.10
2023-02-22T09:52:13.963Z,4.20
2023-02-22T09:54:51.977Z,5.15
2023-02-22T09:57:49.326Z,4.25
2023-02-22T10:00:29.607Z,5.15
2023-02-22T10:03:03.743Z,5.20
2023-02-22T10:05:44.935Z,6.03
2023-02-22T10:08:18.985Z,6.05
2023-02-22T10:10:52.824Z,6.32
2023-02-22T10:13:29.397Z,7.15
2023-02-22T10:16:12.720Z,6.97
2023-02-22T10:19:00.276Z,7.47
2023-02-22T10:21:45.679Z,6.90
2023-02-22T10:24:28.211Z,6.68
2023-02-22T10:26:58.257Z,7.78
2023-02-22T10:29:27.622Z,8.05
2023-02-22T10:31:58.428Z,6.80
2023-02-22T10:34:33.559Z,6.47
2023-02-22T10:37:31.121Z,7.78
2023-02-22T10:40:22.994Z,7.35
2023-02-22T10:42:54.671Z,6.70
2023-02-22T10:47:59.198Z,7.30
2023-02-22T10:50:34.874Z,8.50
2023-02-22T10:53:04.146Z,9.15
2023-02-22T10:58:12.131Z,8.90
2023-02-22T11:00:39.694Z,7.28
2023-02-22T11:03:17.964Z,8.60
2023-02-22T11:05:44.885Z,8.50
2023-02-22T11:08:35.839Z,7.97
2023-02-22T11:11:24.803Z,7.55
2023-02-22T11:13:56.056Z,8.35
2023-02-22T11:16:38.634Z,8.23
2023-02-22T11:19:43.866Z,7.53
2023-02-22T11:22:12.147Z,8.05
2023-02-22T11:24:49.387Z,8.33
2023-02-22T11:27:25.500Z,7.65
2023-02-22T11:29:57.117Z,8.18
2023-02-22T11:32:24.793Z,7.90
2023-02-22T11:35:08.445Z,8.23
2023-02-22T11:37:38.793Z,8.32
2023-02-22T11:40:17.955Z,8.73
2023-02-22T11:45:21.809Z,8.38
2023-02-22T11:47:55.475Z,7.65
2023-02-22T11:50:33.827Z,8.07
2023-02-22T11:53:03.570Z,8.07
2023-02-22T11:55:43.394Z,7.22
2023-02-22T11:58:28.649Z,9.88
2023-02-22T12:01:17.374Z,8.88
2023-02-22T12:04:16.173Z,9.18
2023-02-22T12:07:04.392Z,8.57
2023-02-22T12:09:41.593Z,9.77
2023-02-22T12:12:10.649Z,8.57
2023-02-22T12:14:55.970Z,9.00
2023-02-22T12:17:59.397Z,9.50
2023-02-22T12:20:37.625Z,9.60
2023-02-22T12:23:19.823Z,9.20
2023-02-22T12:26:03.962Z,8.88
2023-02-22T12:28:40.174Z,8.05
2023-02-22T12:31:14.888Z,9.02
2023-02-22T12:34:01.212Z,9.20
2023-02-22T12:36:42.951Z,9.57
2023-02-22T12:39:52.208Z,9.25
2023-02-22T12:42:30.624Z,9.00
2023-02-22T12:45:05.112Z,8.45
2023-02-22T12:47:39.256Z,9.80
2023-02-22T12:50:20.950Z,8.57
2023-02-22T12:52:58.208Z,9.38
2023-02-22T12:56:16.108Z,9.48
2023-02-22T12:59:31.610Z,8.82
2023-02-22T13:02:10.009Z,10.00
2023-02-22T13:04:39.565Z,9.50
2023-02-22T13:07:27.993Z,10.10
2023-02-22T13:10:41.676Z,8.95
2023-02-22T13:13:27.064Z,9.20
2023-02-22T13:16:08.142Z,9.55
2023-02-22T13:18:50.197Z,10.27
2023-02-22T13:21:37.210Z,9.15
2023-02-22T13:24:45.098Z,9.65
2023-02-22T13:27:23.044Z,9.88
2023-02-22T13:29:55.683Z,10.57
2023-02-22T13:32:31.613Z,10.50
2023-02-22T13:35:16.628Z,10.07
2023-02-22T13:37:49.590Z,10.35
2023-02-22T13:40:41.436Z,9.75
2023-02-22T13:43:26.503Z,9.90
2023-02-22T13:45:56.317Z,9.70
2023-02-22T13:48:43.015Z,9.70
2023-02-22T13:51:50.959Z,9.23
2023-02-22T13:54:21.148Z,10.05
2023-02-22T13:56:49.570Z,9.18
2023-02-22T13:59:27.641Z,9.15
2023-02-22T14:01:58.994Z,9.70
2023-02-22T14:04:28.952Z,9.80
2023-02-22T14:07:01.010Z,8.48
2023-02-22T14:09:51.883Z,8.18
2023-02-22T14:12:33.456Z,9.23
2023-02-22T14:15:28.178Z,8.43
2023-02-22T14:17:59.860Z,9.52
2023-02-22T14:20:37.483Z,9.05
2023-02-22T14:23:26.178Z,9.38
2023-02-22T14:26:00.369Z,9.75
2023-02-22T14:28:50.572Z,9.32
2023-02-22T14:31:35.460Z,10.52
2023-02-22T14:34:05.479Z,9.73
2023-02-22T14:36:42.795Z,10.05
2023-02-22T14:39:14.208Z,9.25
2023-02-22T14:41:53.991Z,9.27
2023-02-22T14:44:33.116Z,9.75
2023-02-22T14:47:05.188Z,8.85
2023-02-22T14:49:36.764Z,8.45
2023-02-22T14:52:08.456Z,10.20
2023-02-22T14:54:43.967Z,8.52
2023-02-22T14:57:30.449Z,8.82
2023-02-22T15:00:02.382Z,9.18
2023-02-22T15:02:38.954Z,9.55
2023-02-22T15:05:08.283Z,9.30
2023-02-22T15:10:21.023Z,8.40
2023-02-22T15:13:12.677Z,7.78
2023-02-22T15:15:47.483Z,6.35
2023-02-22T15:18:22.539Z,7.15
2023-02-22T15:20:56.264Z,6.93
2023-02-22T15:23:43.714Z,6.85
2023-02-22T15:26:19.599Z,6.20
2023-02-22T15:28:47.748Z,6.18
2023-02-22T15:31:25.530Z,6.40
2023-02-22T15:33:53.485Z,5.72
2023-02-22T15:36:21.498Z,5.90
2023-02-22T15:38:50.470Z,5.63
2023-02-22T15:41:28.019Z,5.47
2023-02-22T15:44:08.042Z,5.85
2023-02-22T15:46:43.202Z,6.80
2023-02-22T15:49:12.194Z,5.53
2023-02-22T15:51:46.463Z,5.68
2023-02-22T15:54:26.443Z,5.55
2023-02-22T15:57:00.212Z,5.97
2023-02-22T15:59:33.299Z,5.95
2023-02-22T16:02:03.106Z,6.53
2023-02-22T16:04:30.512Z,5.88
2023-02-22T16:07:16.985Z,5.63
2023-02-22T16:09:49.241Z,6.70
2023-02-22T16:12:23.809Z,6.15
2023-02-22T16:14:52.560Z,6.53
2023-02-22T16:17:49.287Z,6.13
2023-02-22T16:20:24.999Z,6.75
2023-02-22T16:22:57.793Z,5.97
2023-02-22T16:25:35.559Z,6.38
2023-02-22T16:28:30.820Z,6.50
2023-02-22T16:30:58.630Z,6.07
2023-02-22T16:33:29.797Z,7.15
2023-02-22T16:35:58.797Z,7.18
2023-02-22T16:38:27.651Z,6.63
2023-02-22T16:40:55.994Z,7.00
2023-02-22T16:43:29.460Z,8.57
2023-02-22T16:46:02.015Z,8.38
2023-02-22T16:48:32.975Z,7.75
2023-02-22T16:51:03.320Z,7.50
2023-02-22T16:53:33.008Z,7.65
2023-02-22T16:56:05.090Z,7.45
2023-02-22T16:58:40.002Z,8.02
2023-02-22T17:01:07.193Z,8.05
2023-02-22T17:03:33.961Z,8.30
2023-02-22T17:06:00.833Z,8.07
2023-02-22T17:08:27.885Z,8.70
2023-02-22T17:10:57.019Z,9.48
2023-02-22T17:13:27.593Z,8.70
2023-02-22T17:15:55.041Z,9.15
2023-02-22T17:18:28.689Z,9.68
2023-02-22T17:21:02.610Z,8.75
2023-02-22T17:23:29.605Z,8.07
2023-02-22T17:26:03.724Z,9.10
2023-02-22T17:28:31.134Z,8.20
2023-02-22T17:31:02.323Z,8.52
2023-02-22T17:33:33.247Z,8.60
2023-02-22T17:36:02.222Z,9.73
2023-02-22T17:38:30.437Z,10.10
2023-02-22T17:41:00.119Z,10.30
2023-02-22T17:43:28.031Z,10.10
2023-02-22T17:45:58.506Z,9.80
2023-02-22T17:48:26.163Z,10.30
2023-02-22T17:50:53.591Z,9.50
2023-02-22T17:53:25.382Z,11.10
2023-02-22T17:55:52.536Z,9.90
2023-02-22T17:58:22.723Z,10.40
2023-02-22T18:00:59.547Z,10.63
2023-02-22T18:03:32.140Z,10.70
2023-02-22T18:06:06.081Z,10.65
2023-02-22T18:08:32.828Z,10.25
2023-02-22T18:11:05.160Z,10.23
2023-02-22T18:13:34.162Z,11.48
2023-02-22T18:16:05.969Z,10.30
2023-02-22T18:18:32.903Z,10.25
2023-02-22T18:21:06.244Z,9.20
2023-02-22T18:23:33.731Z,9.73
2023-02-22T18:26:23.470Z,9.05
2023-02-22T18:28:49.167Z,8.93
2023-02-22T18:31:20.273Z,7.80
2023-02-22T18:33:52.436Z,7.53
2023-02-22T18:36:23.748Z,8.35
2023-02-22T18:38:55.515Z,8.85
2023-02-22T18:41:25.654Z,9.50
2023-02-22T18:43:55.314Z,9.13
2023-02-22T18:46:23.955Z,9.10
2023-02-22T18:48:53.747Z,8.00
2023-02-22T18:51:25.212Z,8.65
2023-02-22T18:54:00.242Z,8.48
2023-02-22T18:56:34.794Z,7.40
2023-02-22T18:59:02.891Z,8.77
2023-02-22T19:01:31.032Z,7.00
2023-02-22T19:03:58.148Z,7.53
2023-02-22T19:06:25.060Z,7.97
2023-02-22T19:08:54.978Z,8.75
2023-02-22T19:11:23.795Z,8.45
2023-02-22T19:13:54.671Z,8.60
2023-02-22T19:16:26.850Z,9.52
2023-02-22T19:18:57.637Z,8.60
2023-02-22T19:21:29.255Z,8.98
2023-02-22T19:24:05.463Z,8.82
2023-02-22T19:26:32.269Z,9.77
2023-02-22T19:29:04.777Z,8.88
2023-02-22T19:31:34.094Z,8.88
2023-02-22T19:34:11.147Z,8.65
2023-02-22T19:36:39.591Z,8.68
2023-02-22T19:39:06.430Z,9.27
2023-02-22T19:41:33.595Z,8.88
2023-02-22T19:44:05.330Z,10.15
2023-02-22T19:46:32.234Z,8.93
2023-02-22T19:49:01.981Z,10.77
2023-02-22T19:51:30.259Z,9.15
2023-02-22T19:54:05.065Z,10.13
2023-02-22T19:56:35.762Z,9.85
2023-02-22T19:59:13.462Z,11.80
2023-02-22T20:01:46.475Z,10.60
2023-02-22T20:04:18.828Z,10.82
2023-02-22T20:06:46.735Z,11.23
2023-02-22T20:09:19.014Z,11.13
2023-02-22T20:11:51.532Z,11.98
2023-02-22T20:14:26.497Z,11.30
2023-02-22T20:16:57.274Z,9.85
2023-02-22T20:19:27.021Z,10.88
2023-02-22T20:21:57.802Z,10.35
2023-02-22T20:24:27.101Z,9.88
2023-02-22T20:26:55.925Z,9.90
2023-02-22T20:29:29.646Z,9.55
2023-02-22T20:31:58.594Z,10.55
2023-02-22T20:34:32.486Z,9.80
2023-02-22T20:37:03.422Z,10.82
2023-02-22T20:39:36.871Z,10.75
2023-02-22T20:42:07.103Z,11.10
2023-02-22T20:44:33.988Z,9.90
2023-02-22T20:47:03.571Z,10.32
2023-02-22T20:49:32.874Z,11.32
2023-02-22T20:52:00.756Z,11.35
2023-02-22T20:54:29.912Z,11.32
2023-02-22T20:56:56.733Z,10.13
2023-02-22T20:59:24.057Z,10.65
2023-02-22T21:01:53.187Z,10.02
2023-02-22T21:04:22.235Z,10.38
2023-02-22T21:06:49.572Z,9.25
2023-02-22T21:09:19.056Z,10.80
2023-02-22T21:11:49.275Z,9.35
2023-02-22T21:14:18.987Z,9.57
2023-02-22T21:16:48.398Z,9.10
2023-02-22T21:19:28.224Z,10.07
2023-02-22T21:21:57.113Z,9.52
2023-02-22T21:24:25.805Z,8.98
2023-02-22T21:26:58.823Z,9.45
2023-02-22T21:29:28.999Z,10.15
2023-02-22T21:31:56.591Z,9.02
2023-02-22T21:34:24.088Z,8.65
2023-02-22T21:36:52.549Z,9.52
2023-02-22T21:39:28.720Z,9.30
2023-02-22T21:42:00.648Z,10.00
2023-02-22T21:44:31.756Z,9.43
2023-02-22T21:47:01.432Z,9.70
2023-02-22T21:49:28.930Z,10.35
2023-02-22T21:51:56.586Z,9.50
2023-02-22T21:54:23.661Z,11.80
2023-02-22T21:56:50.604Z,10.02
2023-02-22T21:59:20.562Z,9.85
2023-02-22T22:01:55.737Z,10.32
2023-02-22T22:04:30.633Z,9.77
2023-02-22T22:07:03.933Z,10.50
2023-02-22T22:09:36.616Z,9.23
2023-02-22T22:12:10.189Z,9.70
2023-02-22T22:14:37.652Z,9.65
2023-02-22T22:17:08.818Z,10.15
2023-02-22T22:19:39.569Z,10.98
2023-02-22T22:22:09.246Z,10.00
2023-02-22T22:24:36.887Z,9.80
2023-02-22T22:27:09.532Z,9.70
2023-02-22T22:29:36.526Z,9.80
2023-02-22T22:32:03.618Z,10.10
2023-02-22T22:34:34.839Z,9.50
2023-02-22T22:37:01.700Z,9.05
2023-02-22T22:39:31.050Z,9.40
2023-02-22T22:44:32.844Z,9.25
2023-02-22T22:47:00.372Z,9.00
2023-02-22T22:49:31.459Z,8.85
2023-02-22T22:51:58.227Z,8.98
2023-02-22T22:54:27.264Z,9.73
2023-02-22T22:56:56.262Z,9.43
2023-02-22T22:59:23.157Z,9.48
2023-02-22T23:01:52.188Z,8.95
2023-02-22T23:04:24.154Z,9.70
2023-02-22T23:06:55.131Z,9.68
2023-02-22T23:09:21.899Z,8.90
2023-02-22T23:12:08.975Z,9.57
2023-02-22T23:14:44.087Z,9.60
2023-02-22T23:17:31.301Z,9.27
2023-02-22T23:19:58.904Z,10.25
2023-02-22T23:22:27.553Z,10.40
2023-02-22T23:24:59.903Z,9.05
2023-02-22T23:27:28.325Z,10.10
2023-02-22T23:29:57.263Z,9.77
2023-02-22T23:32:24.118Z,10.02
2023-02-22T23:34:53.718Z,8.18
2023-02-22T23:37:21.151Z,9.57
2023-02-22T23:39:48.695Z,9.55
2023-02-22T23:42:17.055Z,9.52
2023-02-22T23:44:46.409Z,10.20
2023-02-22T23:49:49.425Z,9.02
2023-02-22T23:52:24.047Z,10.02
2023-02-22T23:54:53.787Z,10.60
2023-02-22T23:57:20.741Z,9.85
2023-02-22T23:59:51.403Z,9.40
